createdAt,value
2022-11-15T00:01:10.824Z,93.14
2022-11-15T00:03:58.021Z,93.15
2022-11-15T00:06:45.332Z,93.20
2022-11-15T00:09:32.719Z,93.20
2022-11-15T00:12:19.748Z,93.20
2022-11-15T00:15:08.228Z,93.12
2022-11-15T00:17:55.690Z,92.99
2022-11-15T00:20:43.732Z,92.95
2022-11-15T00:23:30.947Z,92.93
2022-11-15T00:26:19.244Z,92.92
2022-11-15T00:29:06.823Z,92.84
2022-11-15T00:31:54.694Z,92.87
2022-11-15T00:34:41.899Z,92.91
2022-11-15T00:37:29.458Z,92.81
2022-11-15T00:40:17.563Z,92.68
2022-11-15T00:43:04.752Z,92.66
2022-11-15T00:45:51.879Z,92.77
2022-11-15T00:48:39.350Z,92.75
2022-11-15T00:51:26.661Z,92.72
2022-11-15T00:54:13.849Z,92.68
2022-11-15T00:57:01.211Z,92.61
2022-11-15T00:59:48.207Z,92.56
2022-11-15T01:02:35.828Z,92.56
2022-11-15T01:05:23.205Z,92.59
2022-11-15T01:08:13.605Z,92.48
2022-11-15T01:11:11.943Z,92.46
2022-11-15T01:13:59.109Z,92.33
2022-11-15T01:16:46.253Z,92.36
2022-11-15T01:19:33.544Z,92.34
2022-11-15T01:22:20.857Z,92.37
2022-11-15T01:25:08.928Z,92.31
2022-11-15T01:27:56.327Z,92.22
2022-11-15T01:30:43.476Z,92.21
2022-11-15T01:33:31.391Z,92.26
2022-11-15T01:36:23.963Z,92.26
2022-11-15T01:39:11.491Z,92.20
2022-11-15T01:41:58.855Z,92.25
2022-11-15T01:44:51.271Z,92.17
2022-11-15T01:47:41.304Z,92.15
2022-11-15T01:50:31.373Z,91.98
2022-11-15T01:53:19.634Z,91.98
2022-11-15T01:56:09.859Z,91.98
2022-11-15T01:58:59.033Z,91.91
2022-11-15T02:01:46.193Z,91.90
2022-11-15T02:04:40.100Z,91.93
2022-11-15T02:07:27.706Z,91.87
2022-11-15T02:10:23.341Z,91.84
2022-11-15T02:13:10.909Z,92.09
2022-11-15T02:16:10.762Z,91.82
2022-11-15T02:19:21.851Z,91.76
2022-11-15T02:22:18.688Z,91.86
2022-11-15T02:25:14.428Z,91.71
2022-11-15T02:28:30.540Z,91.60
2022-11-15T02:31:43.406Z,91.56
2022-11-15T02:34:55.289Z,91.53
2022-11-15T02:37:58.057Z,91.42
2022-11-15T02:40:50.961Z,91.30
2022-11-15T02:43:59.807Z,91.27
2022-11-15T02:47:10.885Z,91.21
2022-11-15T02:50:00.905Z,91.25
2022-11-15T02:52:49.887Z,91.24
2022-11-15T02:55:40.101Z,91.20
2022-11-15T02:58:46.981Z,91.09
2022-11-15T03:01:40.425Z,91.07
2022-11-15T03:04:31.381Z,91.02
2022-11-15T03:07:37.162Z,91.08
2022-11-15T03:10:27.290Z,90.96
2022-11-15T03:13:20.423Z,90.89
2022-11-15T03:16:08.621Z,90.85
2022-11-15T03:18:59.071Z,90.65
2022-11-15T03:21:47.704Z,90.77
2022-11-15T03:24:36.583Z,90.70
2022-11-15T03:27:27.399Z,90.60
2022-11-15T03:30:15.789Z,90.75
2022-11-15T03:33:04.828Z,90.43
2022-11-15T03:35:52.420Z,90.30
2022-11-15T03:38:41.075Z,90.16
2022-11-15T03:41:31.910Z,89.93
2022-11-15T03:44:34.665Z,89.96
2022-11-15T03:47:25.181Z,90.00
2022-11-15T03:50:15.440Z,89.96
2022-11-15T03:53:02.897Z,89.94
2022-11-15T03:55:49.667Z,90.00
2022-11-15T03:58:36.796Z,90.06
2022-11-15T04:01:24.284Z,90.10
2022-11-15T04:04:11.991Z,90.16
2022-11-15T04:06:59.287Z,90.29
2022-11-15T04:10:04.982Z,90.38
2022-11-15T04:12:51.896Z,90.42
2022-11-15T04:15:39.109Z,90.34
2022-11-15T04:18:26.918Z,90.44
2022-11-15T04:21:32.294Z,90.57
2022-11-15T04:24:19.594Z,90.50
2022-11-15T04:27:06.698Z,90.63
2022-11-15T04:29:53.862Z,90.73
2022-11-15T04:32:41.125Z,90.73
2022-11-15T04:35:28.355Z,90.91
2022-11-15T04:38:15.386Z,91.12
2022-11-15T04:41:02.972Z,91.33
2022-11-15T04:43:50.214Z,91.48
2022-11-15T04:46:37.545Z,91.64
2022-11-15T04:49:25.258Z,91.64
2022-11-15T04:52:12.421Z,91.56
2022-11-15T04:55:03.655Z,91.66
2022-11-15T04:57:48.747Z,91.67
2022-11-15T05:00:36.973Z,91.66
2022-11-15T05:03:42.028Z,91.85
2022-11-15T05:06:29.612Z,91.79
2022-11-15T05:09:17.154Z,91.73
2022-11-15T05:12:04.361Z,91.88
2022-11-15T05:14:51.857Z,91.83
2022-11-15T05:17:39.407Z,91.77
2022-11-15T05:20:26.704Z,91.59
2022-11-15T05:23:14.044Z,91.28
2022-11-15T05:26:08.017Z,91.18
2022-11-15T05:28:59.822Z,91.13
2022-11-15T05:31:47.038Z,90.99
2022-11-15T05:34:34.895Z,91.06
2022-11-15T05:37:22.269Z,90.92
2022-11-15T05:40:10.461Z,90.87
2022-11-15T05:42:57.993Z,90.78
2022-11-15T05:45:45.555Z,90.59
2022-11-15T05:48:33.792Z,90.74
2022-11-15T05:51:22.456Z,90.59
2022-11-15T05:54:10.489Z,90.57
2022-11-15T05:56:57.690Z,90.65
2022-11-15T05:59:45.454Z,90.68
2022-11-15T06:02:32.419Z,90.65
2022-11-15T06:05:20.003Z,90.78
2022-11-15T06:08:07.154Z,90.81
2022-11-15T06:10:54.544Z,90.88
2022-11-15T06:13:41.648Z,90.91
2022-11-15T06:16:29.315Z,90.77
2022-11-15T06:19:16.572Z,90.78
2022-11-15T06:22:03.923Z,90.86
2022-11-15T06:24:51.504Z,90.73
2022-11-15T06:27:38.665Z,90.53
2022-11-15T06:30:26.784Z,90.43
2022-11-15T06:33:14.332Z,90.12
2022-11-15T06:36:17.724Z,90.19
2022-11-15T06:39:06.056Z,90.13
2022-11-15T06:41:53.318Z,90.06
2022-11-15T06:44:40.545Z,90.03
2022-11-15T06:47:27.789Z,89.96
2022-11-15T06:50:15.153Z,90.15
2022-11-15T06:53:06.338Z,90.33
2022-11-15T06:55:55.570Z,90.56
2022-11-15T06:58:42.629Z,90.70
2022-11-15T07:01:29.912Z,90.75
2022-11-15T07:04:16.757Z,90.71
2022-11-15T07:07:04.350Z,90.77
2022-11-15T07:09:51.972Z,90.81
2022-11-15T07:12:39.362Z,90.68
2022-11-15T07:15:27.989Z,90.70
2022-11-15T07:18:15.319Z,90.69
2022-11-15T07:21:07.584Z,90.52
2022-11-15T07:23:54.853Z,90.43
2022-11-15T07:26:42.098Z,90.37
2022-11-15T07:29:29.595Z,90.25
2022-11-15T07:32:17.127Z,90.14
2022-11-15T07:35:04.766Z,90.11
2022-11-15T07:37:57.405Z,89.63
2022-11-15T07:40:44.593Z,89.40
2022-11-15T07:43:34.025Z,89.25
2022-11-15T07:46:21.543Z,89.24
2022-11-15T07:49:08.729Z,89.19
2022-11-15T07:51:55.996Z,89.04
2022-11-15T07:54:43.148Z,88.85
2022-11-15T07:57:31.268Z,88.68
2022-11-15T08:00:19.325Z,88.78
2022-11-15T08:03:12.742Z,88.42
2022-11-15T08:05:59.060Z,88.14
2022-11-15T08:08:46.375Z,88.25
2022-11-15T08:11:33.342Z,87.93
2022-11-15T08:14:22.332Z,87.39
2022-11-15T08:17:10.477Z,87.07
2022-11-15T08:19:57.928Z,86.68
2022-11-15T08:22:45.271Z,86.35
2022-11-15T08:25:33.685Z,86.44
2022-11-15T08:28:21.980Z,86.00
2022-11-15T08:31:11.052Z,85.49
2022-11-15T08:33:58.124Z,85.34
2022-11-15T08:36:46.264Z,85.00
2022-11-15T08:39:33.493Z,85.29
2022-11-15T08:42:21.107Z,85.50
2022-11-15T08:45:09.453Z,85.60
2022-11-15T08:47:56.883Z,85.42
2022-11-15T08:50:44.907Z,85.48
2022-11-15T08:53:32.232Z,85.08
2022-11-15T08:56:19.677Z,84.69
2022-11-15T08:59:06.724Z,84.08
2022-11-15T09:01:53.902Z,83.68
2022-11-15T09:04:43.386Z,83.69
2022-11-15T09:07:31.576Z,82.82
2022-11-15T09:10:19.256Z,82.51
2022-11-15T09:13:06.611Z,82.28
2022-11-15T09:15:54.252Z,81.62
2022-11-15T09:18:41.276Z,80.94
2022-11-15T09:21:28.709Z,80.31
2022-11-15T09:24:16.101Z,79.12
2022-11-15T09:27:03.381Z,78.18
2022-11-15T09:29:50.412Z,75.87
2022-11-15T09:32:39.352Z,74.39
2022-11-15T09:35:26.806Z,72.62
2022-11-15T09:38:13.910Z,70.93
2022-11-15T09:41:16.671Z,70.91
2022-11-15T09:44:35.853Z,70.47
2022-11-15T09:47:38.273Z,71.30
2022-11-15T09:50:14.438Z,70.44
2022-11-15T09:52:46.049Z,68.35
2022-11-15T09:55:17.950Z,69.68
2022-11-15T09:57:56.187Z,68.19
2022-11-15T10:00:45.934Z,65.25
2022-11-15T10:03:21.222Z,66.08
2022-11-15T10:05:52.694Z,66.05
2022-11-15T10:08:39.995Z,67.70
2022-11-15T10:11:37.163Z,68.95
2022-11-15T10:13:48.909Z,68.96
2022-11-15T10:16:39.786Z,67.49
2022-11-15T10:19:27.521Z,68.00
2022-11-15T10:22:19.568Z,67.99
2022-11-15T10:24:49.395Z,68.50
2022-11-15T10:27:20.517Z,66.62
2022-11-15T10:29:51.641Z,65.78
2022-11-15T10:32:22.553Z,65.99
2022-11-15T10:34:52.308Z,63.42
2022-11-15T10:37:32.627Z,61.47
2022-11-15T10:40:09.404Z,61.93
2022-11-15T10:42:39.770Z,58.70
2022-11-15T10:45:30.095Z,60.30
2022-11-15T10:48:17.686Z,60.48
2022-11-15T10:50:48.215Z,61.11
2022-11-15T10:53:23.447Z,61.32
2022-11-15T10:55:54.992Z,59.70
2022-11-15T10:58:33.867Z,59.41
2022-11-15T11:01:21.375Z,60.28
2022-11-15T11:04:03.147Z,60.78
2022-11-15T11:06:33.581Z,62.48
2022-11-15T11:09:06.235Z,63.89
2022-11-15T11:11:48.085Z,65.34
2022-11-15T11:14:27.828Z,66.19
2022-11-15T11:17:00.193Z,67.20
2022-11-15T11:19:41.598Z,66.74
2022-11-15T11:22:30.451Z,67.15
2022-11-15T11:25:30.632Z,67.80
2022-11-15T11:28:17.805Z,65.91
2022-11-15T11:30:52.946Z,66.47
2022-11-15T11:33:24.157Z,66.27
2022-11-15T11:35:56.728Z,65.24
2022-11-15T11:38:33.037Z,65.50
2022-11-15T11:41:14.553Z,65.04
2022-11-15T11:44:02.081Z,64.40
2022-11-15T11:46:47.079Z,65.53
2022-11-15T11:49:24.983Z,66.90
2022-11-15T11:52:00.094Z,66.56
2022-11-15T11:54:36.941Z,65.71
2022-11-15T11:57:09.371Z,66.36
2022-11-15T11:59:47.755Z,65.05
2022-11-15T12:02:35.786Z,65.01
2022-11-15T12:05:17.018Z,64.68
2022-11-15T12:07:47.679Z,64.89
2022-11-15T12:10:26.943Z,64.89
2022-11-15T12:13:05.174Z,65.13
2022-11-15T12:15:40.356Z,64.47
2022-11-15T12:18:12.853Z,63.25
2022-11-15T12:20:44.672Z,63.24
2022-11-15T12:23:30.030Z,62.57
2022-11-15T12:26:07.616Z,62.71
2022-11-15T12:29:07.413Z,63.81
2022-11-15T12:31:47.004Z,64.87
2022-11-15T12:34:25.295Z,65.31
2022-11-15T12:36:54.660Z,64.17
2022-11-15T12:39:27.279Z,64.47
2022-11-15T12:42:00.143Z,64.84
2022-11-15T12:44:41.330Z,64.85
2022-11-15T12:47:24.710Z,65.58
2022-11-15T12:49:54.468Z,64.65
2022-11-15T12:52:25.169Z,65.67
2022-11-15T12:54:57.476Z,65.49
2022-11-15T12:57:35.631Z,64.96
2022-11-15T13:00:19.484Z,64.52
2022-11-15T13:02:49.402Z,64.73
2022-11-15T13:05:23.502Z,64.73
2022-11-15T13:07:58.276Z,65.16
2022-11-15T13:10:33.424Z,64.94
2022-11-15T13:13:05.364Z,64.66
2022-11-15T13:15:43.142Z,64.88
2022-11-15T13:18:33.106Z,64.49
2022-11-15T13:21:05.850Z,64.58
2022-11-15T13:23:35.058Z,65.08
2022-11-15T13:26:16.807Z,65.13
2022-11-15T13:28:49.787Z,65.79
2022-11-15T13:31:30.628Z,65.55
2022-11-15T13:34:02.979Z,65.33
2022-11-15T13:36:35.706Z,65.79
2022-11-15T13:39:08.042Z,64.98
2022-11-15T13:41:40.490Z,65.70
2022-11-15T13:44:13.208Z,65.98
2022-11-15T13:46:41.838Z,66.13
2022-11-15T13:49:15.462Z,67.81
2022-11-15T13:51:55.985Z,67.14
2022-11-15T13:54:34.222Z,67.71
2022-11-15T13:57:05.834Z,67.65
2022-11-15T13:59:41.025Z,67.81
2022-11-15T14:02:19.073Z,67.90
2022-11-15T14:04:54.639Z,68.61
2022-11-15T14:07:26.472Z,68.13
2022-11-15T14:09:56.197Z,69.11
2022-11-15T14:12:36.053Z,70.10
2022-11-15T14:15:25.261Z,69.02
2022-11-15T14:17:54.664Z,69.46
2022-11-15T14:20:33.018Z,69.82
2022-11-15T14:23:05.140Z,70.07
2022-11-15T14:25:38.006Z,69.52
2022-11-15T14:28:25.548Z,69.62
2022-11-15T14:30:57.417Z,70.32
2022-11-15T14:33:35.388Z,70.19
2022-11-15T14:36:19.961Z,69.98
2022-11-15T14:38:49.876Z,70.32
2022-11-15T14:41:27.879Z,70.15
2022-11-15T14:43:58.647Z,69.58
2022-11-15T14:46:28.045Z,70.44
2022-11-15T14:48:59.164Z,70.31
2022-11-15T14:51:28.600Z,70.34
2022-11-15T14:53:58.021Z,70.79
2022-11-15T14:56:27.625Z,71.21
2022-11-15T14:58:57.130Z,71.30
2022-11-15T15:01:27.837Z,70.87
2022-11-15T15:03:58.213Z,70.94
2022-11-15T15:06:28.472Z,71.62
2022-11-15T15:08:58.069Z,71.51
2022-11-15T15:11:32.585Z,71.76
2022-11-15T15:14:02.296Z,71.54
2022-11-15T15:16:31.572Z,71.59
2022-11-15T15:19:01.223Z,71.74
2022-11-15T15:21:36.853Z,71.56
2022-11-15T15:24:03.106Z,72.16
2022-11-15T15:26:33.868Z,71.61
2022-11-15T15:29:03.108Z,71.43
2022-11-15T15:31:33.826Z,70.95
2022-11-15T15:34:03.435Z,71.50
2022-11-15T15:36:32.768Z,71.89
2022-11-15T15:39:02.041Z,72.22
2022-11-15T15:41:31.241Z,71.67
2022-11-15T15:44:00.513Z,72.32
2022-11-15T15:46:29.701Z,72.89
2022-11-15T15:48:58.929Z,73.21
2022-11-15T15:51:28.139Z,73.97
2022-11-15T15:53:59.077Z,74.33
2022-11-15T15:56:29.235Z,74.20
2022-11-15T15:58:58.579Z,74.71
2022-11-15T16:01:28.079Z,75.26
2022-11-15T16:03:57.371Z,76.34
2022-11-15T16:06:40.264Z,76.34
2022-11-15T16:09:16.002Z,78.32
2022-11-15T16:11:43.016Z,79.27
2022-11-15T16:14:12.512Z,79.82
2022-11-15T16:16:41.868Z,81.29
2022-11-15T16:19:12.214Z,82.01
2022-11-15T16:21:41.491Z,82.52
2022-11-15T16:24:10.838Z,83.68
2022-11-15T16:26:40.529Z,83.75
2022-11-15T16:29:11.761Z,84.58
2022-11-15T16:31:41.034Z,86.24
2022-11-15T16:34:10.423Z,86.26
2022-11-15T16:36:39.757Z,86.05
2022-11-15T16:39:13.982Z,87.11
2022-11-15T16:41:45.421Z,86.72
2022-11-15T16:44:15.363Z,87.71
2022-11-15T16:46:46.490Z,87.62
2022-11-15T16:49:16.205Z,87.80
2022-11-15T16:51:47.803Z,88.12
2022-11-15T16:54:17.156Z,88.65
2022-11-15T16:56:46.418Z,88.70
2022-11-15T16:59:21.129Z,88.76
2022-11-15T17:01:53.296Z,89.07
2022-11-15T17:04:22.785Z,89.52
2022-11-15T17:06:52.103Z,89.60
2022-11-15T17:09:26.539Z,89.67
2022-11-15T17:11:55.717Z,89.84
2022-11-15T17:14:25.110Z,90.15
2022-11-15T17:16:57.096Z,90.04
2022-11-15T17:19:26.339Z,90.04
2022-11-15T17:21:56.120Z,90.30
2022-11-15T17:24:25.517Z,90.55
2022-11-15T17:26:54.857Z,90.52
2022-11-15T17:29:24.197Z,90.41
2022-11-15T17:31:53.423Z,90.68
2022-11-15T17:34:22.814Z,90.96
2022-11-15T17:36:52.063Z,90.99
2022-11-15T17:39:22.947Z,91.17
2022-11-15T17:41:52.361Z,91.19
2022-11-15T17:44:21.699Z,91.33
2022-11-15T17:46:51.055Z,91.48
2022-11-15T17:49:20.364Z,91.55
2022-11-15T17:51:50.345Z,91.63
2022-11-15T17:54:20.019Z,91.62
2022-11-15T17:56:49.356Z,91.56
2022-11-15T17:59:21.640Z,91.62
2022-11-15T18:01:50.259Z,91.58
2022-11-15T18:04:19.495Z,91.66
2022-11-15T18:06:49.206Z,91.77
2022-11-15T18:09:19.274Z,91.96
2022-11-15T18:11:50.693Z,91.78
2022-11-15T18:14:20.384Z,91.11
2022-11-15T18:16:49.848Z,91.61
2022-11-15T18:19:19.133Z,91.74
2022-11-15T18:21:57.375Z,91.42
2022-11-15T18:24:29.133Z,91.57
2022-11-15T18:26:59.832Z,91.61
2022-11-15T18:29:29.335Z,91.61
2022-11-15T18:31:59.534Z,91.97
2022-11-15T18:34:33.966Z,91.82
2022-11-15T18:37:04.034Z,91.98
2022-11-15T18:39:33.238Z,92.22
2022-11-15T18:42:03.487Z,92.25
2022-11-15T18:44:32.771Z,92.25
2022-11-15T18:47:02.325Z,91.94
2022-11-15T18:49:31.657Z,92.33
2022-11-15T18:52:00.903Z,92.25
2022-11-15T18:54:31.558Z,92.15
2022-11-15T18:57:01.764Z,92.30
2022-11-15T18:59:31.106Z,92.40
2022-11-15T19:02:02.005Z,92.60
2022-11-15T19:04:31.523Z,92.73
2022-11-15T19:07:01.156Z,92.59
2022-11-15T19:09:32.222Z,92.88
2022-11-15T19:12:02.057Z,92.77
2022-11-15T19:14:31.790Z,92.95
2022-11-15T19:17:01.176Z,92.84
2022-11-15T19:19:30.755Z,92.96
2022-11-15T19:22:01.435Z,92.94
2022-11-15T19:24:30.775Z,92.94
2022-11-15T19:27:00.493Z,92.67
2022-11-15T19:29:29.883Z,92.85
2022-11-15T19:31:59.153Z,92.90
2022-11-15T19:34:28.491Z,92.91
2022-11-15T19:36:58.000Z,92.88
2022-11-15T19:39:27.286Z,92.95
2022-11-15T19:41:56.623Z,93.15
2022-11-15T19:44:27.296Z,92.98
2022-11-15T19:46:56.535Z,93.08
2022-11-15T19:49:26.199Z,93.11
2022-11-15T19:51:55.430Z,93.13
2022-11-15T19:54:24.780Z,93.14
2022-11-15T19:56:54.207Z,93.01
2022-11-15T19:59:23.535Z,93.03
2022-11-15T20:01:52.753Z,92.98
2022-11-15T20:04:22.149Z,93.17
2022-11-15T20:06:51.375Z,93.07
2022-11-15T20:09:21.063Z,93.12
2022-11-15T20:11:50.321Z,93.15
2022-11-15T20:14:19.804Z,93.24
2022-11-15T20:16:54.111Z,93.25
2022-11-15T20:19:20.016Z,93.32
2022-11-15T20:21:50.310Z,93.45
2022-11-15T20:24:19.689Z,93.36
2022-11-15T20:26:49.029Z,93.34
2022-11-15T20:29:18.320Z,92.56
2022-11-15T20:31:47.834Z,91.81
2022-11-15T20:34:17.210Z,92.00
2022-11-15T20:36:46.445Z,92.12
2022-11-15T20:39:15.749Z,92.64
2022-11-15T20:41:44.953Z,92.79
2022-11-15T20:44:14.353Z,93.00
2022-11-15T20:46:43.560Z,93.05
2022-11-15T20:49:12.988Z,93.05
2022-11-15T20:51:42.264Z,92.90
2022-11-15T20:54:11.574Z,93.19
2022-11-15T20:56:40.859Z,93.03
2022-11-15T20:59:10.160Z,93.10
2022-11-15T21:01:39.648Z,93.17
2022-11-15T21:04:09.177Z,93.16
2022-11-15T21:06:38.540Z,93.21
2022-11-15T21:09:25.683Z,93.04
2022-11-15T21:12:13.468Z,93.16
2022-11-15T21:14:43.992Z,93.24
2022-11-15T21:17:13.396Z,93.42
2022-11-15T21:19:43.412Z,93.47
2022-11-15T21:22:14.700Z,93.51
2022-11-15T21:24:44.183Z,93.53
2022-11-15T21:27:13.448Z,93.62
2022-11-15T21:29:44.451Z,93.67
2022-11-15T21:32:13.684Z,93.71
2022-11-15T21:34:42.900Z,93.69
2022-11-15T21:37:12.116Z,93.75
2022-11-15T21:39:41.359Z,93.86
2022-11-15T21:42:10.555Z,93.90
2022-11-15T21:44:39.869Z,93.95
2022-11-15T21:47:09.179Z,94.00
2022-11-15T21:49:38.648Z,94.03
2022-11-15T21:52:07.857Z,94.06
2022-11-15T21:54:38.949Z,94.05
2022-11-15T21:57:08.162Z,94.11
2022-11-15T21:59:39.735Z,94.14
2022-11-15T22:02:16.759Z,94.30
2022-11-15T22:04:45.979Z,94.32
2022-11-15T22:07:15.296Z,94.24
2022-11-15T22:09:45.063Z,94.30
2022-11-15T22:12:14.539Z,94.35
2022-11-15T22:14:43.760Z,94.32
2022-11-15T22:17:14.256Z,94.33
2022-11-15T22:19:52.673Z,94.52
2022-11-15T22:22:15.924Z,94.51
2022-11-15T22:24:45.443Z,94.39
2022-11-15T22:27:14.656Z,94.33
2022-11-15T22:29:43.881Z,94.35
2022-11-15T22:32:13.084Z,94.36
2022-11-15T22:34:42.392Z,94.35
2022-11-15T22:37:20.663Z,94.47
2022-11-15T22:39:42.588Z,94.54
2022-11-15T22:42:11.767Z,94.48
2022-11-15T22:44:41.254Z,94.54
2022-11-15T22:47:10.461Z,94.53
2022-11-15T22:49:39.894Z,94.53
2022-11-15T22:52:09.344Z,94.63
2022-11-15T22:54:38.774Z,94.66
2022-11-15T22:57:08.069Z,94.70
2022-11-15T22:59:37.818Z,94.72
2022-11-15T23:02:07.084Z,94.68
2022-11-15T23:04:36.328Z,94.66
2022-11-15T23:07:05.831Z,94.71
2022-11-15T23:09:35.213Z,94.68
2022-11-15T23:12:23.147Z,94.86
2022-11-15T23:14:52.381Z,94.87
2022-11-15T23:17:21.611Z,94.85
2022-11-15T23:19:50.837Z,94.82
2022-11-15T23:22:38.031Z,94.87
2022-11-15T23:25:08.138Z,94.84
2022-11-15T23:27:37.943Z,94.86
2022-11-15T23:30:26.307Z,94.88
2022-11-15T23:33:13.569Z,94.81
2022-11-15T23:35:43.119Z,94.83
2022-11-15T23:38:12.458Z,94.94
2022-11-15T23:40:41.824Z,94.96
2022-11-15T23:43:11.294Z,94.91
2022-11-15T23:45:40.596Z,94.89
2022-11-15T23:48:09.812Z,94.91
2022-11-15T23:50:39.615Z,94.91
2022-11-15T23:53:08.990Z,94.85
2022-11-15T23:55:38.498Z,94.80
2022-11-15T23:58:08.563Z,94.83
